Hartford, Connecticut
Traffic Map
Current Weather Conditions
Hartford, Connecticut
Overcast
Overcast
58°
Feels Like: 58°
Wind Chill: 58° Ceiling: 1800
Heat Index: 58° Visibility: 10mi
Dew Point: 55° Wind: 7mph
Humidity: 90% Direction: ° ()
Pressure: 30.1in Gusts: 0mph
Raw Report DataKHFD 020853Z VRB06KT 10SM OVC018 14/13 A3010 RMK AO2 SLP192 60000 T01440128 53001
Traffic Incident Summary
Active as of:
Severity:
Category:
InformationThere was an issue retrieving the traffic information for this location. Please try a different location or try again shortly.
Advertisements
Track Severe Weather on mobile